sensor_id;sensor_type;location;lat;lon;timestamp;pressure;altitude;pressure_sealevel;temperature;humidity
61643;BME280;47551;52.506;4.678;2022-08-07T00:00:12;102694.31;;;14.67;100.00
61643;BME280;47551;52.506;4.678;2022-08-07T00:00:33;102699.63;;;14.67;100.00
61643;BME280;47551;52.506;4.678;2022-08-07T00:00:53;102698.69;;;14.68;100.00
61643;BME280;47551;52.506;4.678;2022-08-07T00:01:14;102690.66;;;14.71;100.00
61643;BME280;47551;52.506;4.678;2022-08-07T00:01:35;102696.81;;;14.74;100.00
61643;BME280;47551;52.506;4.678;2022-08-07T00:01:55;102684.41;;;14.74;100.00
61643;BME280;47551;52.506;4.678;2022-08-07T00:02:18;102684.31;;;14.77;100.00
61643;BME280;47551;52.506;4.678;2022-08-07T00:02:41;102688.75;;;14.77;100.00
61643;BME280;47551;52.506;4.678;2022-08-07T00:03:02;102685.16;;;14.78;100.00
61643;BME280;47551;52.506;4.678;2022-08-07T00:03:22;102690.50;;;14.76;100.00
61643;BME280;47551;52.506;4.678;2022-08-07T00:03:43;102691.34;;;14.78;100.00
61643;BME280;47551;52.506;4.678;2022-08-07T00:04:07;102687.84;;;14.76;100.00
61643;BME280;47551;52.506;4.678;2022-08-07T00:04:27;102688.75;;;14.77;100.00
61643;BME280;47551;52.506;4.678;2022-08-07T00:04:50;102689.72;;;14.72;100.00
61643;BME280;47551;52.506;4.678;2022-08-07T00:05:10;102690.75;;;14.68;100.00
61643;BME280;47551;52.506;4.678;2022-08-07T00:05:31;102681.00;;;14.69;100.00
61643;BME280;47551;52.506;4.678;2022-08-07T00:05:52;102687.19;;;14.69;100.00
61643;BME280;47551;52.506;4.678;2022-08-07T00:06:13;102680.22;;;14.65;100.00
61643;BME280;47551;52.506;4.678;2022-08-07T00:06:37;102689.88;;;14.68;100.00
61643;BME280;47551;52.506;4.678;2022-08-07T00:06:57;102695.25;;;14.66;100.00
61643;BME280;47551;52.506;4.678;2022-08-07T00:07:17;102694.31;;;14.67;100.00
61643;BME280;47551;52.506;4.678;2022-08-07T00:07:38;102687.22;;;14.68;100.00
61643;BME280;47551;52.506;4.678;2022-08-07T00:07:58;102694.31;;;14.67;100.00
61643;BME280;47551;52.506;4.678;2022-08-07T00:08:19;102689.09;;;14.64;100.00
61643;BME280;47551;52.506;4.678;2022-08-07T00:08:44;102688.25;;;14.64;100.00
61643;BME280;47551;52.506;4.678;2022-08-07T00:09:04;102690.84;;;14.65;100.00
61643;BME280;47551;52.506;4.678;2022-08-07T00:09:25;102681.13;;;14.66;100.00
61643;BME280;47551;52.506;4.678;2022-08-07T00:09:45;102691.75;;;14.64;100.00
61643;BME280;47551;52.506;4.678;2022-08-07T00:10:11;102685.59;;;14.62;100.00
61643;BME280;47551;52.506;4.678;2022-08-07T00:10:31;102686.53;;;14.61;100.00
61643;BME280;47551;52.506;4.678;2022-08-07T00:10:51;102689.34;;;14.55;100.00
61643;BME280;47551;52.506;4.678;2022-08-07T00:11:12;102687.63;;;14.54;100.00
61643;BME280;47551;52.506;4.678;2022-08-07T00:11:32;102685.03;;;14.53;100.00
61643;BME280;47551;52.506;4.678;2022-08-07T00:11:53;102688.56;;;14.53;100.00
61643;BME280;47551;52.506;4.678;2022-08-07T00:12:17;102689.47;;;14.52;100.00
61643;BME280;47551;52.506;4.678;2022-08-07T00:12:43;102694.84;;;14.49;100.00
61643;BME280;47551;52.506;4.678;2022-08-07T00:13:04;102693.06;;;14.48;100.00
61643;BME280;47551;52.506;4.678;2022-08-07T00:13:25;102687.63;;;14.54;100.00
61643;BME280;47551;52.506;4.678;2022-08-07T00:13:45;102695.50;;;14.57;100.00
61643;BME280;47551;52.506;4.678;2022-08-07T00:14:12;102685.75;;;14.58;100.00
61643;BME280;47551;52.506;4.678;2022-08-07T00:14:33;102689.34;;;14.55;100.00
61643;BME280;47551;52.506;4.678;2022-08-07T00:14:53;102685.06;;;14.51;100.00
61643;BME280;47551;52.506;4.678;2022-08-07T00:15:14;102685.91;;;14.53;100.00
61643;BME280;47551;52.506;4.678;2022-08-07T00:15:34;102692.06;;;14.54;100.00
61643;BME280;47551;52.506;4.678;2022-08-07T00:15:55;102694.66;;;14.55;100.00
61643;BME280;47551;52.506;4.678;2022-08-07T00:16:15;102687.63;;;14.54;100.00
61643;BME280;47551;52.506;4.678;2022-08-07T00:16:35;102690.28;;;14.54;100.00
61643;BME280;47551;52.506;4.678;2022-08-07T00:16:58;102689.47;;;14.52;100.00
61643;BME280;47551;52.506;4.678;2022-08-07T00:17:21;102692.13;;;14.52;100.00
61643;BME280;47551;52.506;4.678;2022-08-07T00:17:41;102686.91;;;14.47;100.00
61643;BME280;47551;52.506;4.678;2022-08-07T00:18:05;102693.94;;;14.48;100.00
61643;BME280;47551;52.506;4.678;2022-08-07T00:18:27;102688.63;;;14.50;100.00
61643;BME280;47551;52.506;4.678;2022-08-07T00:18:48;102695.88;;;14.43;100.00
61643;BME280;47551;52.506;4.678;2022-08-07T00:19:08;102698.47;;;14.45;100.00
61643;BME280;47551;52.506;4.678;2022-08-07T00:19:30;102696.66;;;14.47;100.00
61643;BME280;47551;52.506;4.678;2022-08-07T00:19:50;102687.78;;;14.48;100.00
61643;BME280;47551;52.506;4.678;2022-08-07T00:20:11;102696.75;;;14.44;100.00
61643;BME280;47551;52.506;4.678;2022-08-07T00:20:31;102693.38;;;14.39;100.00
61643;BME280;47551;52.506;4.678;2022-08-07T00:20:57;102692.59;;;14.34;100.00
61643;BME280;47551;52.506;4.678;2022-08-07T00:21:17;102695.34;;;14.31;100.00
61643;BME280;47551;52.506;4.678;2022-08-07T00:21:38;102684.81;;;14.28;100.00
61643;BME280;47551;52.506;4.678;2022-08-07T00:21:58;102691.88;;;14.29;100.00
61643;BME280;47551;52.506;4.678;2022-08-07T00:22:18;102690.88;;;14.33;100.00
61643;BME280;47551;52.506;4.678;2022-08-07T00:22:39;102693.44;;;14.36;100.00
61643;BME280;47551;52.506;4.678;2022-08-07T00:22:59;102692.50;;;14.38;100.00
61643;BME280;47551;52.506;4.678;2022-08-07T00:23:20;102689.88;;;14.37;100.00
61643;BME280;47551;52.506;4.678;2022-08-07T00:23:40;102696.09;;;14.36;100.00
61643;BME280;47551;52.506;4.678;2022-08-07T00:24:01;102694.34;;;14.35;100.00
61643;BME280;47551;52.506;4.678;2022-08-07T00:24:21;102688.16;;;14.34;100.00
61643;BME280;47551;52.506;4.678;2022-08-07T00:24:41;102693.53;;;14.33;100.00
61643;BME280;47551;52.506;4.678;2022-08-07T00:25:04;102688.16;;;14.34;100.00
61643;BME280;47551;52.506;4.678;2022-08-07T00:25:25;102686.38;;;14.35;100.00
61643;BME280;47551;52.506;4.678;2022-08-07T00:25:45;102693.44;;;14.36;100.00
61643;BME280;47551;52.506;4.678;2022-08-07T00:26:10;102689.94;;;14.35;100.00
61643;BME280;47551;52.506;4.678;2022-08-07T00:26:31;102693.38;;;14.39;100.00
61643;BME280;47551;52.506;4.678;2022-08-07T00:26:51;102689.72;;;14.41;100.00
61643;BME280;47551;52.506;4.678;2022-08-07T00:27:11;102689.72;;;14.41;100.00
61643;BME280;47551;52.506;4.678;2022-08-07T00:27:32;102689.78;;;14.40;100.00
61643;BME280;47551;52.506;4.678;2022-08-07T00:27:52;102683.63;;;14.39;100.00
61643;BME280;47551;52.506;4.678;2022-08-07T00:28:12;102691.50;;;14.42;100.00
61643;BME280;47551;52.506;4.678;2022-08-07T00:28:33;102692.38;;;14.41;100.00
61643;BME280;47551;52.506;4.678;2022-08-07T00:28:54;102689.88;;;14.37;100.00
61643;BME280;47551;52.506;4.678;2022-08-07T00:29:14;102691.78;;;14.32;100.00
61643;BME280;47551;52.506;4.678;2022-08-07T00:29:37;102688.31;;;14.30;100.00
61643;BME280;47551;52.506;4.678;2022-08-07T00:29:57;102691.00;;;14.28;100.00
61643;BME280;47551;52.506;4.678;2022-08-07T00:30:18;102690.03;;;14.31;100.00
61643;BME280;47551;52.506;4.678;2022-08-07T00:30:39;102690.97;;;14.30;100.00
61643;BME280;47551;52.506;4.678;2022-08-07T00:31:03;102690.03;;;14.31;100.00
61643;BME280;47551;52.506;4.678;2022-08-07T00:31:24;102689.16;;;14.30;100.00
61643;BME280;47551;52.506;4.678;2022-08-07T00:31:48;102683.84;;;14.32;100.00
61643;BME280;47551;52.506;4.678;2022-08-07T00:32:08;102688.13;;;14.36;100.00
61643;BME280;47551;52.506;4.678;2022-08-07T00:32:30;102684.66;;;14.34;100.00
61643;BME280;47551;52.506;4.678;2022-08-07T00:32:50;102681.91;;;14.37;100.00
61643;BME280;47551;52.506;4.678;2022-08-07T00:33:11;102688.13;;;14.36;100.00
61643;BME280;47551;52.506;4.678;2022-08-07T00:33:33;102684.66;;;14.34;100.00
61643;BME280;47551;52.506;4.678;2022-08-07T00:33:53;102684.72;;;14.31;100.00
61643;BME280;47551;52.506;4.678;2022-08-07T00:34:14;102682.91;;;14.33;100.00
61643;BME280;47551;52.506;4.678;2022-08-07T00:34:34;102688.31;;;14.30;100.00
61643;BME280;47551;52.506;4.678;2022-08-07T00:34:57;102687.47;;;14.28;100.00
61643;BME280;47551;52.506;4.678;2022-08-07T00:35:18;102685.72;;;14.28;100.00
61643;BME280;47551;52.506;4.678;2022-08-07T00:35:39;102689.16;;;14.30;100.00
61643;BME280;47551;52.506;4.678;2022-08-07T00:35:59;102691.78;;;14.32;100.00
61643;BME280;47551;52.506;4.678;2022-08-07T00:36:19;102688.22;;;14.33;100.00
61643;BME280;47551;52.506;4.678;2022-08-07T00:36:40;102684.72;;;14.31;100.00
61643;BME280;47551;52.506;4.678;2022-08-07T00:37:00;102686.75;;;14.22;100.00
61643;BME280;47551;52.506;4.678;2022-08-07T00:37:20;102685.91;;;14.20;100.00
61643;BME280;47551;52.506;4.678;2022-08-07T00:37:41;102682.31;;;14.23;100.00
61643;BME280;47551;52.506;4.678;2022-08-07T00:38:02;102679.72;;;14.21;100.00
61643;BME280;47551;52.506;4.678;2022-08-07T00:38:23;102689.31;;;14.25;100.00
61643;BME280;47551;52.506;4.678;2022-08-07T00:38:43;102686.66;;;14.25;100.00
61643;BME280;47551;52.506;4.678;2022-08-07T00:39:06;102690.19;;;14.26;100.00
61643;BME280;47551;52.506;4.678;2022-08-07T00:39:26;102687.53;;;14.26;100.00
61643;BME280;47551;52.506;4.678;2022-08-07T00:39:47;102691.03;;;14.27;100.00
61643;BME280;47551;52.506;4.678;2022-08-07T00:40:07;102691.88;;;14.29;100.00
61643;BME280;47551;52.506;4.678;2022-08-07T00:40:31;102687.44;;;14.29;100.00
61643;BME280;47551;52.506;4.678;2022-08-07T00:40:51;102683.88;;;14.30;100.00
61643;BME280;47551;52.506;4.678;2022-08-07T00:41:11;102689.22;;;14.29;100.00
61643;BME280;47551;52.506;4.678;2022-08-07T00:41:32;102688.38;;;14.27;100.00
61643;BME280;47551;52.506;4.678;2022-08-07T00:41:55;102688.38;;;14.27;100.00
61643;BME280;47551;52.506;4.678;2022-08-07T00:42:16;102683.09;;;14.27;100.00
61643;BME280;47551;52.506;4.678;2022-08-07T00:42:37;102687.53;;;14.26;100.00
61643;BME280;47551;52.506;4.678;2022-08-07T00:42:57;102685.81;;;14.23;100.00
61643;BME280;47551;52.506;4.678;2022-08-07T00:43:18;102678.81;;;14.21;100.00
61643;BME280;47551;52.506;4.678;2022-08-07T00:43:38;102688.63;;;14.17;100.00
61643;BME280;47551;52.506;4.678;2022-08-07T00:43:58;102685.25;;;14.12;100.00
61643;BME280;47551;52.506;4.678;2022-08-07T00:44:21;102687.84;;;14.14;100.00
61643;BME280;47551;52.506;4.678;2022-08-07T00:44:41;102683.31;;;14.17;100.00
61643;BME280;47551;52.506;4.678;2022-08-07T00:45:03;102683.16;;;14.23;100.00
61643;BME280;47551;52.506;4.678;2022-08-07T00:45:23;102693.03;;;14.18;100.00
61643;BME280;47551;52.506;4.678;2022-08-07T00:45:44;102682.53;;;14.15;100.00
61643;BME280;47551;52.506;4.678;2022-08-07T00:46:04;102692.28;;;14.13;100.00
61643;BME280;47551;52.506;4.678;2022-08-07T00:46:25;102685.25;;;14.12;100.00
61643;BME280;47551;52.506;4.678;2022-08-07T00:46:45;102688.78;;;14.13;100.00
61643;BME280;47551;52.506;4.678;2022-08-07T00:47:06;102685.34;;;14.09;100.00
61643;BME280;47551;52.506;4.678;2022-08-07T00:47:27;102688.75;;;14.14;100.00
61643;BME280;47551;52.506;4.678;2022-08-07T00:47:48;102680.69;;;14.17;100.00
61643;BME280;47551;52.506;4.678;2022-08-07T00:48:09;102685.97;;;14.19;100.00
61643;BME280;47551;52.506;4.678;2022-08-07T00:48:30;102694.06;;;14.14;100.00
61643;BME280;47551;52.506;4.678;2022-08-07T00:48:50;102684.41;;;14.10;100.00
61643;BME280;47551;52.506;4.678;2022-08-07T00:49:11;102686.13;;;14.13;100.00
61643;BME280;47551;52.506;4.678;2022-08-07T00:49:31;102693.22;;;14.12;100.00
61643;BME280;47551;52.506;4.678;2022-08-07T00:49:51;102681.66;;;14.15;100.00
61643;BME280;47551;52.506;4.678;2022-08-07T00:50:12;102679.78;;;14.18;100.00
61643;BME280;47551;52.506;4.678;2022-08-07T00:50:33;102681.44;;;14.22;100.00
61643;BME280;47551;52.506;4.678;2022-08-07T00:50:56;102674.50;;;14.17;100.00
61643;BME280;47551;52.506;4.678;2022-08-07T00:51:17;102684.34;;;14.13;100.00
61643;BME280;47551;52.506;4.678;2022-08-07T00:51:38;102677.44;;;14.08;100.00
61643;BME280;47551;52.506;4.678;2022-08-07T00:51:58;102677.38;;;14.09;100.00
61643;BME280;47551;52.506;4.678;2022-08-07T00:52:19;102683.47;;;14.13;100.00
61643;BME280;47551;52.506;4.678;2022-08-07T00:52:39;102687.03;;;14.12;100.00
61643;BME280;47551;52.506;4.678;2022-08-07T00:52:59;102682.75;;;14.06;100.00
61643;BME280;47551;52.506;4.678;2022-08-07T00:53:20;102681.84;;;14.07;100.00
61643;BME280;47551;52.506;4.678;2022-08-07T00:53:40;102688.91;;;14.08;100.00
61643;BME280;47551;52.506;4.678;2022-08-07T00:54:01;102686.13;;;14.13;100.00
61643;BME280;47551;52.506;4.678;2022-08-07T00:54:21;102690.47;;;14.15;100.00
61643;BME280;47551;52.506;4.678;2022-08-07T00:54:41;102676.28;;;14.16;100.00
61643;BME280;47551;52.506;4.678;2022-08-07T00:55:02;102686.09;;;14.14;100.00
61643;BME280;47551;52.506;4.678;2022-08-07T00:55:22;102683.59;;;14.08;100.00
61643;BME280;47551;52.506;4.678;2022-08-07T00:55:43;102683.53;;;14.11;100.00
61643;BME280;47551;52.506;4.678;2022-08-07T00:56:03;102688.75;;;14.14;100.00
61643;BME280;47551;52.506;4.678;2022-08-07T00:56:40;102683.53;;;14.11;100.00
61643;BME280;47551;52.506;4.678;2022-08-07T00:57:01;102685.41;;;14.06;100.00
61643;BME280;47551;52.506;4.678;2022-08-07T00:57:23;102680.09;;;14.06;100.00
61643;BME280;47551;52.506;4.678;2022-08-07T00:57:44;102685.41;;;14.06;100.00
61643;BME280;47551;52.506;4.678;2022-08-07T00:58:04;102682.81;;;14.05;100.00
61643;BME280;47551;52.506;4.678;2022-08-07T00:58:25;102681.84;;;14.07;100.00
61643;BME280;47551;52.506;4.678;2022-08-07T00:58:45;102684.47;;;14.09;100.00
61643;BME280;47551;52.506;4.678;2022-08-07T00:59:11;102679.97;;;14.11;100.00
61643;BME280;47551;52.506;4.678;2022-08-07T00:59:31;102681.75;;;14.10;100.00
61643;BME280;47551;52.506;4.678;2022-08-07T00:59:53;102680.91;;;14.10;100.00
61643;BME280;47551;52.506;4.678;2022-08-07T01:00:14;102671.94;;;14.14;100.00
61643;BME280;47551;52.506;4.678;2022-08-07T01:00:34;102678.09;;;14.16;100.00
61643;BME280;47551;52.506;4.678;2022-08-07T01:00:55;102679.03;;;14.13;100.00
61643;BME280;47551;52.506;4.678;2022-08-07T01:01:16;102683.53;;;14.11;100.00
61643;BME280;47551;52.506;4.678;2022-08-07T01:01:37;102678.22;;;14.11;100.00
61643;BME280;47551;52.506;4.678;2022-08-07T01:01:57;102679.91;;;14.14;100.00
61643;BME280;47551;52.506;4.678;2022-08-07T01:02:18;102677.31;;;14.12;100.00
61643;BME280;47551;52.506;4.678;2022-08-07T01:02:40;102676.47;;;14.10;100.00
61643;BME280;47551;52.506;4.678;2022-08-07T01:03:02;102681.69;;;14.13;100.00
61643;BME280;47551;52.506;4.678;2022-08-07T01:03:22;102676.34;;;14.15;100.00
61643;BME280;47551;52.506;4.678;2022-08-07T01:03:43;102677.13;;;14.18;100.00
61643;BME280;47551;52.506;4.678;2022-08-07T01:04:07;102675.38;;;14.17;100.00
61643;BME280;47551;52.506;4.678;2022-08-07T01:04:27;102670.91;;;14.19;100.00
61643;BME280;47551;52.506;4.678;2022-08-07T01:04:47;102673.56;;;14.19;100.00
61643;BME280;47551;52.506;4.678;2022-08-07T01:05:08;102671.00;;;14.16;100.00
61643;BME280;47551;52.506;4.678;2022-08-07T01:05:50;102675.28;;;14.22;100.00
61643;BME280;47551;52.506;4.678;2022-08-07T01:06:12;102674.56;;;14.15;100.00
61643;BME280;47551;52.506;4.678;2022-08-07T01:06:33;102673.72;;;14.13;100.00
61643;BME280;47551;52.506;4.678;2022-08-07T01:06:53;102672.84;;;14.14;100.00
61643;BME280;47551;52.506;4.678;2022-08-07T01:07:15;102672.84;;;14.14;100.00
61643;BME280;47551;52.506;4.678;2022-08-07T01:07:36;102678.13;;;14.14;100.00
61643;BME280;47551;52.506;4.678;2022-08-07T01:07:56;102667.63;;;14.11;100.00
61643;BME280;47551;52.506;4.678;2022-08-07T01:08:23;102678.22;;;14.11;100.00
61643;BME280;47551;52.506;4.678;2022-08-07T01:08:44;102680.91;;;14.10;100.00
61643;BME280;47551;52.506;4.678;2022-08-07T01:09:05;102672.91;;;14.11;100.00
61643;BME280;47551;52.506;4.678;2022-08-07T01:09:26;102666.78;;;14.09;100.00
61643;BME280;47551;52.506;4.678;2022-08-07T01:09:47;102672.91;;;14.11;100.00
61643;BME280;47551;52.506;4.678;2022-08-07T01:10:07;102673.88;;;14.09;100.00
61643;BME280;47551;52.506;4.678;2022-08-07T01:10:28;102678.31;;;14.08;100.00
61643;BME280;47551;52.506;4.678;2022-08-07T01:10:48;102678.31;;;14.08;100.00
61643;BME280;47551;52.506;4.678;2022-08-07T01:11:09;102677.38;;;14.09;100.00
61643;BME280;47551;52.506;4.678;2022-08-07T01:11:31;102676.47;;;14.10;100.00
61643;BME280;47551;52.506;4.678;2022-08-07T01:11:51;102685.47;;;14.05;100.00
61643;BME280;47551;52.506;4.678;2022-08-07T01:12:15;102672.28;;;14.01;100.00
61643;BME280;47551;52.506;4.678;2022-08-07T01:12:37;102674.00;;;14.04;100.00
61643;BME280;47551;52.506;4.678;2022-08-07T01:12:59;102679.16;;;14.09;100.00
61643;BME280;47551;52.506;4.678;2022-08-07T01:13:19;102675.75;;;14.04;100.00
61643;BME280;47551;52.506;4.678;2022-08-07T01:13:40;102677.44;;;14.08;100.00
61643;BME280;47551;52.506;4.678;2022-08-07T01:14:01;102680.91;;;14.10;100.00
61643;BME280;47551;52.506;4.678;2022-08-07T01:14:26;102671.16;;;14.10;100.00
61643;BME280;47551;52.506;4.678;2022-08-07T01:14:46;102670.44;;;14.04;100.00
61643;BME280;47551;52.506;4.678;2022-08-07T01:15:07;102674.88;;;14.03;100.00
61643;BME280;47551;52.506;4.678;2022-08-07T01:15:31;102677.63;;;14.00;100.00
61643;BME280;47551;52.506;4.678;2022-08-07T01:15:53;102674.09;;;13.99;100.00
61643;BME280;47551;52.506;4.678;2022-08-07T01:16:15;102673.25;;;13.99;100.00
61643;BME280;47551;52.506;4.678;2022-08-07T01:16:35;102678.47;;;14.02;100.00
61643;BME280;47551;52.506;4.678;2022-08-07T01:16:57;102671.34;;;14.04;100.00
61643;BME280;47551;52.506;4.678;2022-08-07T01:17:17;102670.44;;;14.04;100.00
61643;BME280;47551;52.506;4.678;2022-08-07T01:17:38;102671.34;;;14.04;100.00
61643;BME280;47551;52.506;4.678;2022-08-07T01:17:58;102675.81;;;14.02;100.00
61643;BME280;47551;52.506;4.678;2022-08-07T01:18:18;102671.44;;;14.01;100.00
61643;BME280;47551;52.506;4.678;2022-08-07T01:18:39;102671.44;;;14.01;100.00
61643;BME280;47551;52.506;4.678;2022-08-07T01:19:00;102673.16;;;14.02;100.00
61643;BME280;47551;52.506;4.678;2022-08-07T01:19:21;102667.84;;;14.02;100.00
61643;BME280;47551;52.506;4.678;2022-08-07T01:19:42;102670.56;;;14.00;100.00
61643;BME280;47551;52.506;4.678;2022-08-07T01:20:09;102665.34;;;13.97;100.00
61643;BME280;47551;52.506;4.678;2022-08-07T01:20:37;102669.66;;;14.00;100.00
61643;BME280;47551;52.506;4.678;2022-08-07T01:21:15;102668.06;;;13.94;100.00
61643;BME280;47551;52.506;4.678;2022-08-07T01:21:36;102669.84;;;13.94;100.00
61643;BME280;47551;52.506;4.678;2022-08-07T01:22:01;102669.75;;;13.97;100.00
61643;BME280;47551;52.506;4.678;2022-08-07T01:22:22;102669.66;;;14.00;100.00
61643;BME280;47551;52.506;4.678;2022-08-07T01:22:43;102671.34;;;14.04;100.00
61643;BME280;47551;52.506;4.678;2022-08-07T01:23:04;102664.25;;;14.05;100.00
61643;BME280;47551;52.506;4.678;2022-08-07T01:23:28;102675.66;;;14.07;100.00
61643;BME280;47551;52.506;4.678;2022-08-07T01:23:53;102667.69;;;14.08;100.00
61643;BME280;47551;52.506;4.678;2022-08-07T01:24:14;102673.00;;;14.08;100.00
61643;BME280;47551;52.506;4.678;2022-08-07T01:24:35;102666.78;;;14.09;100.00
61643;BME280;47551;52.506;4.678;2022-08-07T01:24:57;102662.41;;;14.08;100.00
61643;BME280;47551;52.506;4.678;2022-08-07T01:25:18;102664.19;;;14.06;100.00
61643;BME280;47551;52.506;4.678;2022-08-07T01:25:39;102660.75;;;14.04;100.00
61643;BME280;47551;52.506;4.678;2022-08-07T01:26:00;102662.47;;;14.05;100.00
61643;BME280;47551;52.506;4.678;2022-08-07T01:26:22;102666.91;;;14.05;100.00
61643;BME280;47551;52.506;4.678;2022-08-07T01:26:42;102672.28;;;14.01;100.00
61643;BME280;47551;52.506;4.678;2022-08-07T01:27:09;102674.97;;;14.00;100.00
61643;BME280;47551;52.506;4.678;2022-08-07T01:27:30;102674.09;;;13.99;100.00
61643;BME280;47551;52.506;4.678;2022-08-07T01:27:54;102675.88;;;14.00;100.00
61643;BME280;47551;52.506;4.678;2022-08-07T01:28:14;102677.69;;;13.98;100.00
61643;BME280;47551;52.506;4.678;2022-08-07T01:28:38;102675.88;;;13.99;100.00
61643;BME280;47551;52.506;4.678;2022-08-07T01:29:01;102657.41;;;13.96;100.00
61643;BME280;47551;52.506;4.678;2022-08-07T01:29:22;102671.44;;;14.01;100.00
61643;BME280;47551;52.506;4.678;2022-08-07T01:29:46;102671.44;;;14.01;100.00
61643;BME280;47551;52.506;4.678;2022-08-07T01:30:06;102680.19;;;14.03;100.00
61643;BME280;47551;52.506;4.678;2022-08-07T01:30:28;102666.13;;;14.01;100.00
61643;BME280;47551;52.506;4.678;2022-08-07T01:30:51;102668.84;;;13.98;100.00
61643;BME280;47551;52.506;4.678;2022-08-07T01:31:12;102667.16;;;13.95;100.00
61643;BME280;47551;52.506;4.678;2022-08-07T01:31:33;102665.34;;;13.97;100.00
61643;BME280;47551;52.506;4.678;2022-08-07T01:31:54;102662.63;;;13.99;100.00
61643;BME280;47551;52.506;4.678;2022-08-07T01:32:15;102671.44;;;14.01;100.00
61643;BME280;47551;52.506;4.678;2022-08-07T01:32:35;102668.88;;;13.96;100.00
61643;BME280;47551;52.506;4.678;2022-08-07T01:32:55;102665.38;;;13.96;100.00
61643;BME280;47551;52.506;4.678;2022-08-07T01:33:16;102667.09;;;13.97;100.00
61643;BME280;47551;52.506;4.678;2022-08-07T01:33:36;102668.88;;;13.96;100.00
61643;BME280;47551;52.506;4.678;2022-08-07T01:33:58;102668.94;;;13.95;100.00
61643;BME280;47551;52.506;4.678;2022-08-07T01:34:19;102669.94;;;13.91;100.00
61643;BME280;47551;52.506;4.678;2022-08-07T01:34:39;102667.22;;;13.92;100.00
61643;BME280;47551;52.506;4.678;2022-08-07T01:35:04;102668.88;;;13.96;100.00
61643;BME280;47551;52.506;4.678;2022-08-07T01:35:25;102671.50;;;13.98;100.00
61643;BME280;47551;52.506;4.678;2022-08-07T01:35:46;102669.75;;;13.97;100.00
61643;BME280;47551;52.506;4.678;2022-08-07T01:36:07;102671.50;;;13.98;100.00
61643;BME280;47551;52.506;4.678;2022-08-07T01:36:32;102668.19;;;13.90;100.00
61643;BME280;47551;52.506;4.678;2022-08-07T01:36:52;102666.44;;;13.89;100.00
61643;BME280;47551;52.506;4.678;2022-08-07T01:37:15;102663.66;;;13.93;100.00
61643;BME280;47551;52.506;4.678;2022-08-07T01:37:36;102668.06;;;13.94;100.00
61643;BME280;47551;52.506;4.678;2022-08-07T01:37:57;102665.63;;;13.87;100.00
61643;BME280;47551;52.506;4.678;2022-08-07T01:38:18;102669.09;;;13.89;100.00
61643;BME280;47551;52.506;4.678;2022-08-07T01:38:39;102669.94;;;13.91;100.00
61643;BME280;47551;52.506;4.678;2022-08-07T01:38:59;102668.09;;;13.93;100.00
61643;BME280;47551;52.506;4.678;2022-08-07T01:39:20;102671.59;;;13.95;100.00
61643;BME280;47551;52.506;4.678;2022-08-07T01:39:46;102666.22;;;13.96;100.00
61643;BME280;47551;52.506;4.678;2022-08-07T01:40:07;102668.88;;;13.96;100.00
61643;BME280;47551;52.506;4.678;2022-08-07T01:40:28;102666.31;;;13.93;100.00
61643;BME280;47551;52.506;4.678;2022-08-07T01:40:49;102673.31;;;13.96;100.00
61643;BME280;47551;52.506;4.678;2022-08-07T01:41:11;102667.09;;;13.97;100.00
61643;BME280;47551;52.506;4.678;2022-08-07T01:41:32;102663.63;;;13.95;100.00
61643;BME280;47551;52.506;4.678;2022-08-07T01:41:53;102671.66;;;13.92;100.00
61643;BME280;47551;52.506;4.678;2022-08-07T01:42:14;102665.53;;;13.90;100.00
61643;BME280;47551;52.506;4.678;2022-08-07T01:42:35;102666.38;;;13.92;100.00
61643;BME280;47551;52.506;4.678;2022-08-07T01:42:55;102669.75;;;13.97;100.00
61643;BME280;47551;52.506;4.678;2022-08-07T01:43:16;102668.88;;;13.96;100.00
61643;BME280;47551;52.506;4.678;2022-08-07T01:43:36;102667.22;;;13.92;100.00
61643;BME280;47551;52.506;4.678;2022-08-07T01:43:57;102667.22;;;13.94;100.00
61643;BME280;47551;52.506;4.678;2022-08-07T01:44:18;102669.84;;;13.94;100.00
61643;BME280;47551;52.506;4.678;2022-08-07T01:44:38;102662.88;;;13.90;100.00
61643;BME280;47551;52.506;4.678;2022-08-07T01:45:00;102668.19;;;13.90;100.00
61643;BME280;47551;52.506;4.678;2022-08-07T01:45:21;102659.44;;;13.86;100.00
61643;BME280;47551;52.506;4.678;2022-08-07T01:45:42;102666.41;;;13.90;100.00
61643;BME280;47551;52.506;4.678;2022-08-07T01:46:03;102659.25;;;13.94;100.00
61643;BME280;47551;52.506;4.678;2022-08-07T01:46:24;102659.34;;;13.91;100.00
61643;BME280;47551;52.506;4.678;2022-08-07T01:46:45;102663.78;;;13.90;100.00
61643;BME280;47551;52.506;4.678;2022-08-07T01:47:07;102658.56;;;13.86;100.00
61643;BME280;47551;52.506;4.678;2022-08-07T01:47:27;102658.63;;;13.84;100.00
61643;BME280;47551;52.506;4.678;2022-08-07T01:47:47;102657.75;;;13.84;100.00
61643;BME280;47551;52.506;4.678;2022-08-07T01:48:08;102662.22;;;13.82;100.00
61643;BME280;47551;52.506;4.678;2022-08-07T01:48:28;102665.63;;;13.87;100.00
61643;BME280;47551;52.506;4.678;2022-08-07T01:48:51;102656.97;;;13.80;100.00
61643;BME280;47551;52.506;4.678;2022-08-07T01:49:11;102661.31;;;13.83;100.00
61643;BME280;47551;52.506;4.678;2022-08-07T01:49:32;102661.22;;;13.86;100.00
61643;BME280;47551;52.506;4.678;2022-08-07T01:49:52;102663.88;;;13.86;100.00
61643;BME280;47551;52.506;4.678;2022-08-07T01:50:13;102656.78;;;13.86;100.00
61643;BME280;47551;52.506;4.678;2022-08-07T01:50:38;102652.47;;;13.84;100.00